Terminal Aerodrome Forecast
Issued by NWS

Home | Current Version | Previous Version | Text Only | Print | Product List | Glossary On
Versions: 1 2 3 4 5 6 7 8 9 10 11 12 13 14 15
000
FTUS41 KPBZ 192332
TAFMGW
TAF
KMGW 192332Z 2000/2024 06004KT P6SM VCTS BKN050CB
     FM200100 27003KT P6SM SCT050
     FM200600 00000KT 5SM BR FEW200
     FM200800 00000KT 1SM BR SCT003
     FM201300 00000KT 3SM BR SCT003
     FM201400 VRB03KT P6SM SCT250=

USA.gov is the U.S. government's official web portal to all federal, state and local government web resources and services.